Time;durP1;ratioP1;P1;durP2;ratioP2;P2;SDS_P1;SDS_P2;PMS_P1;PMS_P2;Temp;Humidity;BMP_temperature;BMP_pressure;BME280_temperature;BME280_humidity;BME280_pressure;Samples;Min_cycle;Max_cycle;Signal;HPM_P1;HPM_P2
2022/01/04 00:01:25;;;;;;;14.37;9.07;;;;;;;8.53;86.29;94496.22;4971091;28;20208;-60
2022/01/04 00:03:50;;;;;;;15.17;8.23;;;;;;;8.47;86.02;94494.16;4971379;28;20654;-60
2022/01/04 00:06:16;;;;;;;14.13;9.43;;;;;;;8.21;86.36;94475.94;4971051;28;20295;-62
2022/01/04 00:08:42;;;;;;;18.33;8.63;;;;;;;7.88;88.78;94448.19;4970458;28;20227;-63
2022/01/04 00:11:31;;;;;;;15.43;9.33;;;;;;;7.82;89.44;94446.13;4971220;28;20204;-60
2022/01/04 00:13:56;;;;;;;14.53;8.30;;;;;;;7.94;89.09;94454.50;4970981;28;20683;-61
2022/01/04 00:16:22;;;;;;;15.97;9.13;;;;;;;8.01;88.17;94469.09;4970871;28;20204;-62
2022/01/04 00:18:47;;;;;;;16.77;9.37;;;;;;;7.66;90.96;94450.75;4953684;28;20195;-59
2022/01/04 00:21:13;;;;;;;16.13;9.43;;;;;;;7.67;90.51;94457.44;4970797;28;20674;-59
2022/01/04 00:23:39;;;;;;;19.57;10.00;;;;;;;7.83;89.10;94465.47;4971076;28;20710;-61
2022/01/04 00:26:04;;;;;;;15.67;9.50;;;;;;;7.75;89.57;94457.66;4970836;28;20710;-62
2022/01/04 00:28:30;;;;;;;12.67;7.40;;;;;;;7.57;89.76;94469.19;4971187;28;20192;-61
2022/01/04 00:30:56;;;;;;;10.13;6.43;;;;;;;7.46;89.23;94486.88;4969526;28;20200;-62
2022/01/04 00:33:22;;;;;;;10.63;5.93;;;;;;;7.33;89.54;94463.44;4970925;28;20192;-58
2022/01/04 00:35:48;;;;;;;8.37;5.57;;;;;;;7.42;88.51;94490.56;4970600;28;20228;-60
2022/01/04 00:38:13;;;;;;;10.40;5.90;;;;;;;7.35;87.64;94486.88;4970555;28;20187;-59
2022/01/04 00:40:39;;;;;;;8.37;5.30;;;;;;;7.26;88.11;94495.16;4970557;28;20266;-63
2022/01/04 00:43:05;;;;;;;8.90;5.40;;;;;;;7.03;90.06;94488.47;4970509;28;20235;-61
2022/01/04 00:45:32;;;;;;;6.67;4.77;;;;;;;6.95;90.41;94491.53;4970501;28;20188;-62
2022/01/04 00:50:27;;;;;;;9.53;5.40;;;;;;;6.65;92.61;94481.94;4970758;28;20188;-59
2022/01/04 00:52:53;;;;;;;9.63;4.97;;;;;;;6.70;92.57;94484.97;4969120;28;20654;-59
2022/01/04 00:55:19;;;;;;;8.07;5.10;;;;;;;6.71;92.29;94483.22;4969177;28;20677;-63
2022/01/04 00:57:44;;;;;;;8.63;4.40;;;;;;;6.60;92.75;94476.44;4969017;28;20195;-61
2022/01/04 01:00:12;;;;;;;7.60;4.83;;;;;;;6.52;92.68;94465.28;4970397;28;20191;-61
2022/01/04 01:02:37;;;;;;;6.70;4.63;;;;;;;6.46;93.69;94464.00;4970217;28;20210;-62
2022/01/04 01:05:04;;;;;;;6.87;4.40;;;;;;;6.60;93.29;94465.53;4970967;28;20249;-61
2022/01/04 01:07:30;;;;;;;8.60;4.90;;;;;;;6.62;93.44;94466.22;4968707;28;20212;-62
2022/01/04 01:12:27;;;;;;;6.87;4.47;;;;;;;6.79;92.93;94450.63;4970437;28;20242;-62
2022/01/04 01:14:52;;;;;;;7.00;4.80;;;;;;;6.85;91.91;94457.75;4968944;28;20210;-62
2022/01/04 01:17:18;;;;;;;9.47;5.20;;;;;;;6.78;91.54;94461.66;4970292;28;20195;-60
2022/01/04 01:19:43;;;;;;;7.30;4.27;;;;;;;6.78;91.48;94466.72;4970362;28;20573;-58
2022/01/04 01:22:09;;;;;;;9.50;4.40;;;;;;;6.62;92.94;94451.06;4968595;28;20234;-62
2022/01/04 01:24:34;;;;;;;7.83;4.30;;;;;;;6.56;94.62;94457.38;4970323;28;20188;-62
2022/01/04 01:27:00;;;;;;;7.70;4.87;;;;;;;6.69;93.63;94455.56;4970143;28;20255;-62
2022/01/04 01:29:25;;;;;;;7.47;4.30;;;;;;;6.78;93.14;94451.56;4969925;28;20571;-63
2022/01/04 01:31:51;;;;;;;5.63;3.97;;;;;;;6.89;90.59;94455.84;4970044;28;20564;-59
2022/01/04 01:34:16;;;;;;;6.47;4.17;;;;;;;7.01;90.21;94465.03;4969839;28;20195;-60
2022/01/04 01:36:42;;;;;;;7.20;4.33;;;;;;;7.04;89.36;94474.91;4970264;28;20578;-62
2022/01/04 01:39:08;;;;;;;6.57;3.87;;;;;;;7.01;89.27;94465.03;4970323;28;20189;-62
2022/01/04 01:41:33;;;;;;;7.00;4.20;;;;;;;7.13;88.36;94472.50;4969848;28;20203;-63
2022/01/04 01:43:59;;;;;;;10.27;4.27;;;;;;;7.23;88.25;94475.94;4968681;28;20200;-62
2022/01/04 01:46:24;;;;;;;10.43;5.43;;;;;;;7.26;88.49;94490.09;4969829;28;20211;-60
2022/01/04 01:48:50;;;;;;;5.83;4.23;;;;;;;7.30;88.04;94501.56;4970229;28;20195;-62
2022/01/04 01:51:17;;;;;;;5.70;4.00;;;;;;;7.30;88.90;94481.34;4969731;28;20199;-62
2022/01/04 01:53:44;;;;;;;6.93;4.33;;;;;;;7.37;88.49;94488.34;4969932;28;20579;-61
2022/01/04 01:56:09;;;;;;;8.93;4.53;;;;;;;7.23;88.23;94480.22;4968561;28;20215;-62
2022/01/04 01:58:35;;;;;;;7.60;4.30;;;;;;;7.20;87.50;94486.28;4969584;28;20192;-63
2022/01/04 02:01:01;;;;;;;7.50;4.27;;;;;;;7.16;87.41;94481.56;4969737;28;20696;-62
2022/01/04 02:03:26;;;;;;;5.93;4.40;;;;;;;7.08;87.68;94468.69;4969642;28;20224;-60
2022/01/04 02:05:52;;;;;;;9.17;4.57;;;;;;;6.90;89.21;94465.00;4968554;28;20204;-62
2022/01/04 02:08:18;;;;;;;7.73;5.03;;;;;;;7.01;88.35;94472.63;4969588;28;20257;-63
2022/01/04 02:10:45;;;;;;;10.20;4.60;;;;;;;6.85;88.65;94464.56;4969538;28;20208;-61
2022/01/04 02:13:11;;;;;;;7.10;4.60;;;;;;;6.87;87.93;94481.19;4969651;28;20203;-63
2022/01/04 02:15:36;;;;;;;7.07;4.20;;;;;;;6.54;88.70;94468.50;4969704;28;20700;-61
2022/01/04 02:18:02;;;;;;;6.10;3.80;;;;;;;6.44;89.50;94445.63;4969575;28;20192;-63
2022/01/04 02:20:28;;;;;;;7.93;3.90;;;;;;;6.27;90.69;94440.97;4976176;23;20737;-61
2022/01/04 02:22:55;;;;;;;5.77;4.30;;;;;;;6.11;91.90;94437.13;4949015;29;20230;-62
2022/01/04 02:25:20;;;;;;;11.20;4.47;;;;;;;6.15;91.29;94446.91;4950202;28;20241;-59
2022/01/04 02:27:46;;;;;;;8.70;4.80;;;;;;;6.10;92.27;94443.09;4950132;28;20263;-59
2022/01/04 02:30:15;;;;;;;9.77;5.60;;;;;;;6.07;93.98;94436.53;4950405;28;20219;-60
2022/01/04 02:32:43;;;;;;;10.97;6.17;;;;;;;6.15;94.01;94444.38;4952136;28;20192;-59
2022/01/04 02:35:10;;;;;;;11.90;6.30;;;;;;;6.13;94.79;94443.69;4953367;28;20177;-62
2022/01/04 02:37:36;;;;;;;14.73;7.70;;;;;;;6.23;94.52;94436.25;4952973;28;20218;-60
2022/01/04 02:40:02;;;;;;;10.93;7.30;;;;;;;6.16;94.84;94433.34;4951939;28;20192;-62
2022/01/04 02:42:28;;;;;;;8.97;5.90;;;;;;;6.21;93.54;94441.41;4953533;28;20215;-63
2022/01/04 02:44:53;;;;;;;10.43;5.67;;;;;;;6.10;93.85;94451.44;4951821;28;20188;-59
2022/01/04 02:47:19;;;;;;;9.23;5.63;;;;;;;5.97;95.14;94437.28;4951871;28;20693;-59
2022/01/04 02:49:45;;;;;;;8.60;5.17;;;;;;;6.04;94.28;94430.91;4953092;28;20190;-62
2022/01/04 02:52:10;;;;;;;9.30;4.20;;;;;;;5.96;93.01;94441.53;4951978;28;20208;-62
2022/01/04 02:54:36;;;;;;;6.13;4.43;;;;;;;5.82;94.16;94429.84;4953109;28;20696;-61
2022/01/04 02:57:01;;;;;;;7.13;4.50;;;;;;;5.74;94.24;94436.34;4952940;28;20656;-59
2022/01/04 02:59:27;;;;;;;6.93;3.93;;;;;;;5.70;94.08;94433.22;4952843;28;20544;-61
2022/01/04 03:01:53;;;;;;;9.67;4.33;;;;;;;5.76;93.65;94432.00;4953138;28;20216;-59
2022/01/04 03:04:20;;;;;;;9.13;5.33;;;;;;;5.66;95.19;94423.47;4953103;28;20230;-62
2022/01/04 03:06:45;;;;;;;6.67;4.57;;;;;;;5.70;95.90;94429.91;4953070;28;20209;-61
2022/01/04 03:09:11;;;;;;;8.97;4.20;;;;;;;5.90;94.04;94434.38;4952830;28;20191;-59
2022/01/04 03:11:36;;;;;;;7.47;4.67;;;;;;;6.02;93.13;94433.53;4952821;28;20207;-59
2022/01/04 03:14:02;;;;;;;9.40;4.30;;;;;;;5.98;92.58;94427.09;4952587;28;20654;-62
2022/01/04 03:16:27;;;;;;;9.27;4.53;;;;;;;6.00;92.62;94430.31;4951282;28;20696;-61
2022/01/04 03:19:09;;;;;;;5.80;3.97;;;;;;;6.03;92.79;94435.16;4952682;28;20597;-63
2022/01/04 03:21:37;;;;;;;8.23;4.70;;;;;;;6.02;94.16;94423.44;4951012;28;20222;-62
2022/01/04 03:24:05;;;;;;;7.37;4.53;;;;;;;6.22;92.48;94429.59;4952503;28;20568;-62
2022/01/04 03:26:31;;;;;;;6.43;4.17;;;;;;;6.21;90.90;94448.97;4951353;28;20219;-62
2022/01/04 03:28:57;;;;;;;6.07;4.20;;;;;;;6.17;90.60;94437.50;4952452;28;20668;-62
2022/01/04 03:31:23;;;;;;;5.60;3.87;;;;;;;6.24;91.04;94436.13;4952291;28;20284;-62
2022/01/04 03:33:48;;;;;;;8.43;3.93;;;;;;;6.33;90.47;94442.25;4952342;28;20653;-62
2022/01/04 03:36:14;;;;;;;8.63;4.50;;;;;;;6.35;90.82;94450.50;4952649;28;20216;-62
2022/01/04 03:38:41;;;;;;;6.70;4.10;;;;;;;6.39;91.13;94449.38;4950898;29;20189;-63
2022/01/04 03:41:08;;;;;;;8.10;4.80;;;;;;;6.42;90.70;94452.47;4950822;28;20617;-63
2022/01/04 03:43:34;;;;;;;8.63;4.57;;;;;;;6.52;90.11;94462.75;4935132;29;20578;-60
2022/01/04 03:45:59;;;;;;;8.67;4.87;;;;;;;6.58;89.19;94464.84;4952290;28;20212;-59
2022/01/04 03:48:24;;;;;;;9.57;4.53;;;;;;;6.44;90.32;94455.72;4952029;28;20196;-62
2022/01/04 03:50:50;;;;;;;7.23;4.50;;;;;;;6.54;89.93;94456.69;4952188;28;20262;-62
2022/01/04 03:53:16;;;;;;;7.97;4.70;;;;;;;6.55;90.36;94463.31;4952201;28;20189;-59
2022/01/04 03:55:42;;;;;;;7.80;3.93;;;;;;;6.68;89.09;94464.06;4950899;28;20273;-61
2022/01/04 03:58:07;;;;;;;9.07;4.60;;;;;;;6.67;87.65;94482.66;4952181;28;20210;-62
2022/01/04 04:00:33;;;;;;;7.20;4.23;;;;;;;6.45;89.25;94467.44;4952183;28;20654;-62
2022/01/04 04:02:58;;;;;;;9.10;4.57;;;;;;;6.30;89.99;94463.47;4952039;28;20209;-62
2022/01/04 04:05:24;;;;;;;11.83;5.00;;;;;;;6.43;89.15;94460.88;4950444;28;20188;-63
2022/01/04 04:07:49;;;;;;;7.33;4.90;;;;;;;6.58;87.37;94480.81;4950772;29;20262;-59
2022/01/04 04:10:14;;;;;;;10.10;4.13;;;;;;;6.22;88.98;94458.16;4951662;28;20197;-63
2022/01/04 04:12:40;;;;;;;6.40;4.33;;;;;;;5.93;91.50;94432.47;4952371;28;20192;-62
2022/01/04 04:15:09;;;;;;;9.73;5.20;;;;;;;6.13;90.68;94442.88;4951680;28;20190;-62
2022/01/04 04:17:35;;;;;;;8.27;4.47;;;;;;;5.89;91.34;94437.84;4952099;28;20279;-59
2022/01/04 04:20:03;;;;;;;8.03;4.63;;;;;;;6.04;90.78;94453.63;4951943;28;20207;-60
2022/01/04 04:22:29;;;;;;;8.83;4.23;;;;;;;6.00;90.93;94450.47;4951471;28;20306;-62
2022/01/04 04:24:54;;;;;;;10.43;4.93;;;;;;;5.95;90.78;94452.53;4951711;28;20218;-63
2022/01/04 04:27:19;;;;;;;8.43;5.03;;;;;;;5.88;91.66;94441.25;4952047;28;20212;-61
2022/01/04 04:29:45;;;;;;;8.33;5.30;;;;;;;5.87;92.18;94444.72;4951690;28;20238;-62
2022/01/04 04:32:10;;;;;;;8.37;4.47;;;;;;;5.83;92.26;94449.16;4951437;28;20214;-63
2022/01/04 04:34:36;;;;;;;6.83;4.50;;;;;;;5.75;92.61;94443.00;4951398;28;20187;-61
2022/01/04 04:37:03;;;;;;;8.37;4.57;;;;;;;5.68;93.11;94446.84;4951361;28;20291;-62
2022/01/04 04:39:28;;;;;;;9.70;5.20;;;;;;;5.42;94.36;94437.75;4951532;28;20184;-62
2022/01/04 04:41:54;;;;;;;6.70;4.73;;;;;;;5.25;96.23;94465.81;4951723;28;20211;-63
2022/01/04 04:44:19;;;;;;;7.47;5.10;;;;;;;5.22;96.55;94471.03;4951416;28;20207;-60
2022/01/04 04:46:45;;;;;;;12.10;5.83;;;;;;;5.16;97.30;94466.41;4951642;28;20691;-63
2022/01/04 04:49:11;;;;;;;8.43;5.70;;;;;;;5.45;95.26;94471.13;4951267;28;20184;-62
2022/01/04 04:51:37;;;;;;;10.93;6.40;;;;;;;5.29;95.48;94464.69;4951255;28;20241;-62
2022/01/04 04:54:04;;;;;;;16.60;7.00;;;;;;;5.34;95.30;94468.53;4951016;28;20199;-62
2022/01/04 04:56:29;;;;;;;13.20;7.50;;;;;;;5.24;96.12;94454.13;4950996;28;20218;-63
2022/01/04 04:58:55;;;;;;;12.23;7.37;;;;;;;5.24;96.08;94457.44;4951167;28;20180;-63
2022/01/04 05:01:20;;;;;;;12.00;7.17;;;;;;;5.15;96.29;94455.56;4951169;28;20279;-62
2022/01/04 05:03:46;;;;;;;10.10;6.47;;;;;;;4.96;99.12;94460.19;4951325;28;20222;-62
2022/01/04 05:06:11;;;;;;;9.77;6.23;;;;;;;4.77;100.00;94460.59;4951069;28;20637;-61
2022/01/04 05:08:37;;;;;;;12.93;6.77;;;;;;;4.69;100.00;94464.50;4950944;28;20177;-61
2022/01/04 05:11:02;;;;;;;10.77;7.10;;;;;;;4.53;100.00;94467.22;4951131;28;20209;-62
2022/01/04 05:13:28;;;;;;;10.57;6.37;;;;;;;4.59;100.00;94464.31;4950770;28;20235;-62
2022/01/04 05:15:54;;;;;;;11.93;7.00;;;;;;;4.53;100.00;94464.69;4950864;28;20216;-62
2022/01/04 05:18:19;;;;;;;10.50;6.50;;;;;;;4.55;100.00;94470.44;4950782;28;20188;-63
2022/01/04 05:20:45;;;;;;;9.83;6.33;;;;;;;4.71;100.00;94466.03;4950551;28;20216;-62
2022/01/04 05:23:11;;;;;;;11.27;5.90;;;;;;;4.71;100.00;94468.53;4949464;28;20210;-62
2022/01/04 05:25:36;;;;;;;9.47;5.73;;;;;;;4.77;100.00;94469.84;4950681;28;20686;-63
2022/01/04 05:28:02;;;;;;;11.50;5.90;;;;;;;4.95;100.00;94464.41;4950629;28;20702;-63
2022/01/04 05:30:27;;;;;;;11.20;5.77;;;;;;;5.01;100.00;94458.97;4950480;28;20194;-63
2022/01/04 05:32:53;;;;;;;8.13;4.20;;;;;;;4.97;98.57;94461.78;4950897;28;20222;-62
2022/01/04 05:35:27;;;;;;;6.07;3.80;;;;;;;5.00;97.29;94466.63;4950648;28;20219;-63
2022/01/04 05:37:53;;;;;;;7.77;4.07;;;;;;;4.87;98.46;94454.03;4949715;29;20270;-63
2022/01/04 05:40:18;;;;;;;7.43;4.33;;;;;;;5.06;97.74;94464.53;4949201;28;20270;-63
2022/01/04 05:42:43;;;;;;;9.87;3.90;;;;;;;4.99;95.22;94478.41;4950992;28;20319;-63
2022/01/04 05:45:09;;;;;;;7.70;4.00;;;;;;;4.98;95.68;94471.78;4951172;28;20190;-61
2022/01/04 05:47:35;;;;;;;9.43;5.47;;;;;;;4.94;97.00;94462.81;4950862;28;20209;-62
2022/01/04 05:50:00;;;;;;;14.97;4.50;;;;;;;4.95;97.81;94449.31;4950493;28;20274;-59
2022/01/04 05:52:26;;;;;;;7.63;3.77;;;;;;;5.65;100.00;94449.59;4950777;28;20207;-63
2022/01/04 05:54:51;;;;;;;9.50;4.67;;;;;;;5.65;100.00;94450.41;4948787;28;20213;-62
2022/01/04 05:57:18;;;;;;;8.43;4.70;;;;;;;5.67;100.00;94467.94;4948951;28;20260;-62
2022/01/04 05:59:43;;;;;;;11.70;5.37;;;;;;;5.76;100.00;94503.41;4950348;28;20239;-62
2022/01/04 06:02:09;;;;;;;9.23;5.17;;;;;;;5.73;100.00;94500.31;4949094;28;20338;-62
2022/01/04 06:04:34;;;;;;;6.53;4.40;;;;;;;5.69;100.00;94488.81;4950416;28;20188;-62
2022/01/04 06:07:00;;;;;;;6.67;4.27;;;;;;;5.66;100.00;94481.44;4951480;28;20204;-62
2022/01/04 06:09:39;;;;;;;7.33;4.37;;;;;;;5.74;100.00;94491.81;4953651;28;20278;-62
2022/01/04 06:14:50;;;;;;;5.87;4.60;;;;;;;5.85;100.00;94477.59;4953485;28;20228;-62
2022/01/04 06:14:57;;;;;;;8.90;5.17;;;;;;;6.10;100.00;94527.16;4953469;29;20360;-63
2022/01/04 06:17:27;;;;;;;8.47;5.33;;;;;;;6.16;100.00;94513.31;4953778;28;20277;-62
2022/01/04 06:19:55;;;;;;;8.37;4.20;;;;;;;6.14;100.00;94513.41;4953345;28;20593;-63
2022/01/04 06:22:21;;;;;;;7.43;4.53;;;;;;;6.02;100.00;94503.38;4951722;28;20327;-62
2022/01/04 06:24:47;;;;;;;8.47;4.77;;;;;;;5.99;100.00;94524.56;4953329;28;20215;-62
2022/01/04 06:27:13;;;;;;;7.10;3.97;;;;;;;6.02;100.00;94523.56;4953666;28;20239;-64
2022/01/04 06:29:39;;;;;;;8.10;4.40;;;;;;;5.89;100.00;94509.28;4953275;28;20184;-63
2022/01/04 06:32:09;;;;;;;8.20;5.03;;;;;;;6.10;100.00;94506.97;4953581;28;20203;-61
2022/01/04 06:34:36;;;;;;;11.40;5.87;;;;;;;6.19;100.00;94492.91;4953314;28;20183;-63
2022/01/04 06:37:01;;;;;;;9.70;4.77;;;;;;;6.24;100.00;94506.00;4953447;28;20675;-63
2022/01/04 06:39:27;;;;;;;8.97;5.60;;;;;;;6.13;100.00;94480.72;4953293;28;20612;-62
2022/01/04 06:41:53;;;;;;;19.30;4.63;;;;;;;6.23;100.00;94525.41;4953250;28;20208;-61
2022/01/04 06:44:18;;;;;;;14.47;5.20;;;;;;;6.18;99.77;94524.91;4952949;28;20193;-62
2022/01/04 06:46:45;;;;;;;7.47;4.47;;;;;;;5.85;100.00;94499.50;4952999;28;20704;-62
2022/01/04 06:49:15;;;;;;;8.43;4.67;;;;;;;5.81;100.00;94495.53;4951727;29;20216;-60
2022/01/04 06:51:42;;;;;;;7.17;5.00;;;;;;;5.83;100.00;94487.00;4951786;28;20241;-62
2022/01/04 06:54:09;;;;;;;8.13;5.00;;;;;;;5.84;100.00;94475.16;4952614;28;20199;-62
2022/01/04 06:56:35;;;;;;;10.30;4.83;;;;;;;5.77;100.00;94464.69;4951384;28;20249;-62
2022/01/04 06:59:00;;;;;;;10.40;5.40;;;;;;;5.81;100.00;94468.63;4952815;28;20223;-62
2022/01/04 07:01:26;;;;;;;12.90;5.63;;;;;;;5.75;100.00;94463.19;4952930;28;20699;-63
2022/01/04 07:03:52;;;;;;;14.53;7.43;;;;;;;5.65;100.00;94457.16;4952459;28;20223;-63
2022/01/04 07:06:17;;;;;;;12.23;6.57;;;;;;;5.53;100.00;94447.91;4952892;28;20203;-62
2022/01/04 07:08:43;;;;;;;13.20;6.27;;;;;;;5.54;100.00;94455.38;4951300;28;20211;-64
2022/01/04 07:11:09;;;;;;;14.23;6.77;;;;;;;5.70;100.00;94463.50;4952644;28;20207;-62
2022/01/04 07:13:34;;;;;;;12.30;6.97;;;;;;;5.92;100.00;94478.78;4951344;29;20583;-63
2022/01/04 07:16:00;;;;;;;20.47;10.43;;;;;;;5.86;100.00;94463.25;4952591;28;20277;-59
2022/01/04 07:18:25;;;;;;;29.83;14.57;;;;;;;5.68;100.00;94470.34;4952100;28;20184;-61
2022/01/04 07:20:51;;;;;;;35.90;19.70;;;;;;;6.01;100.00;94477.34;4952456;28;20222;-60
2022/01/04 07:23:17;;;;;;;43.93;24.03;;;;;;;6.15;100.00;94488.97;4952443;28;20599;-62
2022/01/04 07:25:43;;;;;;;48.83;25.57;;;;;;;6.20;100.00;94487.75;4952424;28;20299;-59
2022/01/04 07:28:09;;;;;;;45.27;26.53;;;;;;;6.35;100.00;94481.63;4952511;28;20219;-62
2022/01/04 07:30:34;;;;;;;42.93;23.20;;;;;;;6.59;100.00;94502.59;4952025;28;20730;-60
2022/01/04 07:33:01;;;;;;;41.10;20.53;;;;;;;6.67;100.00;94487.69;4952284;28;20195;-59
2022/01/04 07:35:27;;;;;;;18.00;9.97;;;;;;;6.58;100.00;94495.94;4951907;28;20265;-60
2022/01/04 07:37:52;;;;;;;15.03;9.77;;;;;;;6.54;100.00;94507.19;4952320;28;20183;-60
2022/01/04 07:40:20;;;;;;;13.73;9.17;;;;;;;6.55;100.00;94503.72;4952168;28;20692;-63
2022/01/04 07:42:47;;;;;;;13.97;8.80;;;;;;;6.56;100.00;94507.06;4952560;28;20689;-63
2022/01/04 07:45:13;;;;;;;17.37;9.10;;;;;;;6.65;100.00;94508.91;4950897;29;20185;-63
2022/01/04 07:47:41;;;;;;;15.27;8.97;;;;;;;6.81;100.00;94493.47;4951946;28;20207;-62
2022/01/04 07:50:07;;;;;;;19.83;9.07;;;;;;;6.85;100.00;94499.91;4950696;28;20196;-59
2022/01/04 07:52:33;;;;;;;25.17;13.47;;;;;;;6.75;100.00;94480.38;4950761;28;20204;-60
2022/01/04 07:54:59;;;;;;;36.33;16.30;;;;;;;6.80;100.00;94475.00;4950807;29;20277;-62
2022/01/04 07:57:25;;;;;;;32.50;16.90;;;;;;;6.88;100.00;94467.66;4952398;28;20253;-63
2022/01/04 07:59:50;;;;;;;38.37;18.93;;;;;;;7.01;100.00;94480.97;4951022;29;20212;-61
2022/01/04 08:02:16;;;;;;;30.43;17.40;;;;;;;7.15;100.00;94485.03;4952129;28;20208;-61
2022/01/04 08:04:42;;;;;;;38.90;16.83;;;;;;;7.25;100.00;94491.81;4951879;28;20200;-60
2022/01/04 08:07:07;;;;;;;32.03;16.33;;;;;;;7.28;100.00;94484.00;4952100;28;20242;-59
2022/01/04 08:09:33;;;;;;;32.07;17.97;;;;;;;7.47;100.00;94499.41;4950643;28;20267;-60
2022/01/04 08:11:58;;;;;;;32.23;17.13;;;;;;;7.47;100.00;94508.72;4951940;28;20205;-63
2022/01/04 08:14:24;;;;;;;38.23;21.10;;;;;;;7.52;98.49;94537.00;4951914;28;20623;-63
2022/01/04 08:16:49;;;;;;;38.77;22.90;;;;;;;7.25;100.00;94508.72;4951828;28;20262;-62
2022/01/04 08:19:15;;;;;;;48.57;24.57;;;;;;;7.14;99.81;94506.16;4951587;28;20184;-63
2022/01/04 08:21:40;;;;;;;46.50;25.07;;;;;;;7.31;99.99;94511.56;4951311;28;20220;-64
2022/01/04 08:24:06;;;;;;;45.67;25.77;;;;;;;7.65;99.26;94517.47;4951383;28;20216;-63
2022/01/04 08:26:31;;;;;;;43.97;26.33;;;;;;;7.95;99.04;94526.97;4951575;28;20208;-63
2022/01/04 08:28:57;;;;;;;45.43;26.27;;;;;;;8.46;96.43;94558.44;4951013;28;20189;-64
2022/01/04 08:31:29;;;;;;;44.87;26.63;;;;;;;8.69;95.79;94552.34;4951019;28;20215;-64
2022/01/04 08:33:54;;;;;;;38.83;24.23;;;;;;;8.62;95.10;94555.50;4951529;28;20174;-65
2022/01/04 08:36:28;;;;;;;42.70;27.17;;;;;;;8.73;93.37;94579.06;4951399;28;20201;-63
2022/01/04 08:38:55;;;;;;;46.10;25.10;;;;;;;8.89;91.91;94582.00;4951011;28;20225;-63
2022/01/04 08:41:20;;;;;;;40.83;24.87;;;;;;;8.83;92.87;94574.06;4949982;28;20283;-60
2022/01/04 08:43:46;;;;;;;45.93;24.30;;;;;;;8.76;93.18;94553.50;4951066;28;20253;-60
2022/01/04 08:46:12;;;;;;;40.07;24.33;;;;;;;8.84;91.59;94575.69;4951298;28;20287;-65
2022/01/04 08:48:37;;;;;;;40.90;25.57;;;;;;;8.79;92.30;94554.97;4951034;28;20197;-63
2022/01/04 08:51:03;;;;;;;39.70;25.17;;;;;;;8.82;92.46;94547.13;4951211;28;20208;-64
2022/01/04 08:53:28;;;;;;;50.73;25.63;;;;;;;8.88;92.07;94544.09;4951140;28;20185;-64
2022/01/04 08:55:56;;;;;;;41.57;25.30;;;;;;;9.10;91.65;94554.13;4951317;28;20617;-64
2022/01/04 08:58:22;;;;;;;41.80;23.77;;;;;;;9.24;91.19;94552.09;4951190;28;20580;-63
2022/01/04 09:00:48;;;;;;;40.20;23.73;;;;;;;9.40;91.51;94558.44;4951262;28;20201;-63
2022/01/04 09:03:14;;;;;;;38.90;22.73;;;;;;;9.58;90.26;94577.22;4950783;28;20244;-63
2022/01/04 09:05:39;;;;;;;36.47;20.50;;;;;;;9.67;90.39;94564.63;4950865;28;20193;-63
2022/01/04 09:08:05;;;;;;;32.10;19.27;;;;;;;9.64;89.88;94561.50;4949557;29;20646;-63
2022/01/04 09:10:32;;;;;;;30.53;17.93;;;;;;;9.86;88.63;94595.16;4949464;28;20178;-63
2022/01/04 09:13:21;;;;;;;28.97;17.27;;;;;;;9.83;87.74;94587.81;4950794;28;20674;-63
2022/01/04 09:20:54;;;;;;;30.77;17.97;;;;;;;9.88;88.22;94562.81;4949751;28;20220;-64
2022/01/04 09:23:21;;;;;;;23.53;16.30;;;;;;;9.96;88.14;94550.28;4950693;28;20217;-63
2022/01/04 09:25:48;;;;;;;29.57;16.87;;;;;;;10.13;86.88;94559.06;4950786;28;20650;-64
2022/01/04 09:28:15;;;;;;;30.17;16.33;;;;;;;10.29;86.73;94561.91;4950676;28;20193;-63
2022/01/04 09:30:43;;;;;;;22.40;16.23;;;;;;;10.24;85.83;94569.09;4950571;28;20299;-63
2022/01/04 09:33:09;;;;;;;27.50;15.50;;;;;;;10.56;84.78;94571.47;4950531;28;20193;-62
2022/01/04 09:35:36;;;;;;;26.13;16.60;;;;;;;10.85;84.18;94569.72;4950438;28;20337;-63
2022/01/04 09:38:02;;;;;;;30.47;18.30;;;;;;;11.22;82.51;94580.03;4949367;29;20189;-61
2022/01/04 09:40:27;;;;;;;33.93;18.50;;;;;;;11.31;81.89;94574.16;4950572;28;20193;-59
2022/01/04 09:42:54;;;;;;;39.10;19.30;;;;;;;11.29;82.15;94543.72;4953988;28;20223;-61
2022/01/04 09:45:20;;;;;;;33.47;18.93;;;;;;;11.64;81.92;94538.81;4952618;28;20185;-62
2022/01/04 09:47:46;;;;;;;39.67;20.27;;;;;;;11.62;80.58;94560.25;4953618;28;20212;-63
2022/01/04 09:50:12;;;;;;;29.40;18.77;;;;;;;11.91;79.44;94575.50;4954188;28;20181;-62
2022/01/04 09:52:43;;;;;;;33.53;17.47;;;;;;;12.29;78.89;94577.88;4954243;28;20220;-63
2022/01/04 09:55:10;;;;;;;24.90;18.33;;;;;;;12.11;78.99;94564.28;4953927;28;20209;-63
2022/01/04 09:57:36;;;;;;;24.43;15.17;;;;;;;12.45;76.25;94608.66;4954182;28;20227;-63
2022/01/04 10:00:03;;;;;;;22.10;15.20;;;;;;;12.37;76.29;94591.50;4952275;29;20642;-63
2022/01/04 10:02:31;;;;;;;21.20;15.03;;;;;;;12.63;77.69;94566.13;4953984;28;20221;-63
2022/01/04 10:05:18;;;;;;;22.97;14.77;;;;;;;12.96;75.96;94585.91;4953838;28;20582;-64
2022/01/04 10:07:46;;;;;;;27.13;16.60;;;;;;;13.25;72.75;94588.25;4936281;29;20250;-63
2022/01/04 10:10:18;;;;;;;29.93;16.80;;;;;;;13.54;68.53;94593.09;4952029;28;20199;-63
2022/01/04 10:12:55;;;;;;;23.23;15.23;;;;;;;13.40;64.92;94636.09;4952430;29;20268;-63
2022/01/04 10:15:47;;;;;;;25.07;14.33;;;;;;;13.40;66.57;94579.91;4953577;28;20199;-64
2022/01/04 10:18:12;;;;;;;28.90;15.43;;;;;;;13.49;65.95;94586.69;4952631;29;20224;-62
2022/01/04 10:20:51;;;;;;;21.67;13.57;;;;;;;13.90;63.18;94579.25;4953236;28;20228;-63
2022/01/04 10:23:22;;;;;;;20.10;13.93;;;;;;;14.22;61.61;94599.91;4953460;28;20586;-63
2022/01/04 10:26:12;;;;;;;23.50;14.10;;;;;;;14.50;60.39;94597.97;4953530;28;20263;-63
2022/01/04 10:28:44;;;;;;;23.90;15.37;;;;;;;14.69;57.58;94611.28;4953255;28;20228;-64
2022/01/04 10:31:17;;;;;;;21.67;15.25;;;;;;;14.85;57.45;94588.28;4952200;28;20216;-62
2022/01/04 10:33:43;;;;;;;21.98;14.77;;;;;;;15.08;56.46;94594.41;4952009;29;20189;-63
2022/01/04 10:36:14;;;;;;;21.77;15.00;;;;;;;15.22;56.47;94585.31;4953295;28;20275;-64
2022/01/04 10:38:43;;;;;;;20.75;14.52;;;;;;;15.43;55.97;94582.28;4936709;29;20177;-64
2022/01/04 10:41:26;;;;;;;21.70;13.10;;;;;;;15.56;55.46;94583.41;4953164;28;20712;-64
2022/01/04 10:43:58;;;;;;;23.60;14.05;;;;;;;15.69;55.21;94572.66;4953123;28;20711;-62
2022/01/04 10:46:36;;;;;;;28.27;14.05;;;;;;;15.68;55.16;94576.97;4951861;28;20201;-64
2022/01/04 10:49:16;;;;;;;18.45;11.20;;;;;;;16.00;53.83;94600.97;4953113;28;20675;-63
2022/01/04 10:51:43;;;;;;;20.30;11.27;;;;;;;16.02;53.71;94594.69;4953370;28;20201;-63
2022/01/04 10:54:09;;;;;;;18.23;11.52;;;;;;;16.16;53.42;94586.31;4973305;23;20224;-64
2022/01/04 10:56:38;;;;;;;25.92;12.57;;;;;;;16.29;52.97;94589.16;4953170;28;20605;-60
2022/01/04 10:59:09;;;;;;;19.02;12.90;;;;;;;15.90;53.88;94560.09;4953333;28;20223;-62
2022/01/04 11:01:46;;;;;;;22.50;13.10;;;;;;;15.72;53.46;94562.06;4952865;28;20174;-63
2022/01/04 11:06:41;;;;;;;18.85;11.88;;;;;;;15.17;56.95;94463.81;4989914;28;20268;-62
2022/01/04 11:09:08;;;;;;;18.27;12.43;;;;;;;15.38;55.42;94503.31;4989432;28;20210;-63
2022/01/04 11:11:35;;;;;;;20.67;12.10;;;;;;;15.51;54.79;94518.25;4990240;28;20230;-61
2022/01/04 11:14:01;;;;;;;25.20;12.98;;;;;;;15.38;54.43;94515.31;4991651;28;20669;-62
2022/01/04 11:16:28;;;;;;;21.60;12.52;;;;;;;15.35;55.18;94510.53;4991361;28;20598;-61
2022/01/04 11:18:55;;;;;;;21.05;10.93;;;;;;;15.56;53.88;94531.34;4991523;28;20544;-63
2022/01/04 11:21:36;;;;;;;17.10;10.82;;;;;;;15.37;54.38;94503.50;4991282;28;20198;-63
2022/01/04 11:24:07;;;;;;;21.42;11.98;;;;;;;15.58;54.54;94514.03;4991579;28;20215;-62
2022/01/04 11:26:33;;;;;;;16.50;11.43;;;;;;;15.40;55.03;94483.47;4991278;28;20203;-63
2022/01/04 11:28:59;;;;;;;15.02;10.23;;;;;;;15.37;55.46;94465.84;4991584;28;20188;-63
2022/01/04 11:32:08;;;;;;;17.02;11.02;;;;;;;15.06;56.55;94445.28;4991352;28;20196;-63
2022/01/04 11:35:12;;;;;;;15.63;11.73;;;;;;;15.18;56.10;94444.94;4958477;28;20273;-65
2022/01/04 11:37:41;;;;;;;16.20;11.52;;;;;;;14.97;56.78;94417.25;4991326;28;20195;-63
2022/01/04 11:40:34;;;;;;;19.93;11.03;;;;;;;14.97;57.73;94397.59;4989970;28;20207;-63
2022/01/04 11:43:00;;;;;;;14.75;10.73;;;;;;;14.75;57.08;94402.56;4991141;28;20204;-63
2022/01/04 11:45:39;;;;;;;17.40;9.75;;;;;;;14.63;57.36;94402.09;4991471;28;20219;-59